Flight Track Log - Related Links

Times and Time Zones

All times are in EDT time to prevent confusion due to time zone crossing. See the N8986W flight status page for this flight to view local times or setup timezone preferences in your user account.

Time Position Orientation Groundspeed Altitude Reporting Facility
EDT Latitude Longitude Course Direction KTS MPH feet Rate Location/Type
Sun 07:25:34 PM 32.6833 -83.6667 140° Southeast 83 96 1,000  Level Atlanta TRACON
Sun 07:26:28 PM 32.6667 -83.6500 140° Southeast 72 83 1,600 579 Climbing Atlanta TRACON
Sun 07:27:28 PM 32.6500 -83.6500 180° South 70 81 2,100 450 Climbing Atlanta TRACON
Sun 07:28:28 PM 32.6167 -83.6333 157° South 91 105 2,500 450 Climbing Atlanta TRACON
Sun 07:29:28 PM 32.6000 -83.6167 140° Southeast 92 106 3,000 450 Climbing Atlanta TRACON
Sun 07:30:28 PM 32.5667 -83.6167 180° South 94 108 3,400 450 Climbing Atlanta TRACON
Sun 07:31:28 PM 32.5500 -83.6000 140° Southeast 96 110 3,900 474 Climbing Atlanta TRACON
Sun 07:32:22 PM 32.5167 -83.6000 180° South 95 109 4,300 500 Climbing Atlanta TRACON
Sun 07:33:28 PM 32.5000 -83.6000 180° South 91 105 4,900 524 Climbing Atlanta TRACON
Sun 07:34:28 PM 32.4667 -83.5833 157° South 97 112 5,400 450 Climbing Atlanta TRACON
Sun 07:35:28 PM 32.4500 -83.5667 140° Southeast 95 109 5,800 400 Climbing Atlanta TRACON
Sun 07:36:28 PM 32.4167 -83.5667 180° South 107 123 6,200 400 Climbing Atlanta TRACON
Sun 07:37:28 PM 32.3833 -83.5500 157° South 112 129 6,600 381 Climbing Atlanta TRACON
Sun 07:38:34 PM 32.3500 -83.5333 157° South 115 132 7,000 321 Climbing Atlanta TRACON
Sun 07:39:20 PM 32.3319 -83.5344 183° South 117 135 7,200 226 Climbing Jacksonville Center
Sun 07:40:20 PM 32.2986 -83.5169 156° South 117 135 7,400 100 Climbing Jacksonville Center
Sun 07:41:20 PM 32.2611 -83.5019 161° South 128 147 7,400 -33 Level Jacksonville Center
Sun 07:43:20 PM 32.1903 -83.4792 165° South 135 155 7,300  Descending Jacksonville Center
Sun 07:44:20 PM 32.1569 -83.4644 159° South 135 155 7,400  Climbing Jacksonville Center
Sun 07:46:00 PM 32.1063 -83.4243 164° South  Level FlightAware Approximate
Sun 07:48:20 PM 32.0131 -83.4144 164° South 135 155 7,300  Level Jacksonville Center
Sun 07:49:20 PM 31.9775 -83.3994 160° South 135 155 7,400 50 Climbing Jacksonville Center
Sun 07:50:20 PM 31.9400 -83.3894 167° South 135 155 7,400  Level Jacksonville Center
Sun 07:52:20 PM 31.8692 -83.3647 163° South 140 161 7,400  Level Jacksonville Center
Sun 07:53:00 PM 31.8709 -83.3456 164° South  Level FlightAware Approximate
Sun 07:53:20 PM 31.8317 -83.3497 161° South 145 167 7,400  Level Jacksonville Center
Sun 07:54:20 PM 31.7961 -83.3325 158° South 145 167 7,500  Climbing Jacksonville Center
Sun 07:56:00 PM 31.7408 -83.3110 162° South  Level FlightAware Approximate
Sun 07:57:20 PM 31.6794 -83.2906 162° South 145 167 7,400  Level Jacksonville Center
Sun 07:58:20 PM 31.6397 -83.2781 165° South 145 167 7,400  Level Jacksonville Center
Sun 08:00:00 PM 31.5856 -83.2511 157° South  Level FlightAware Approximate
Sun 08:02:20 PM 31.4875 -83.2239 163° South 145 167 7,400  Level Jacksonville Center
Sun 08:03:20 PM 31.4522 -83.2019 152° Southeast 145 167 7,300  Descending Jacksonville Center
Sun 08:05:20 PM 31.3769 -83.1797 166° South 145 167 7,400 33 Climbing Jacksonville Center
Sun 08:06:20 PM 31.3394 -83.1697 167° South 145 167 7,400  Level Jacksonville Center
Sun 08:07:00 PM 31.3495 -83.1649 163° South  Level FlightAware Approximate
Sun 08:07:20 PM 31.3039 -83.1503 155° Southeast 145 167 7,400  Level Jacksonville Center
Sun 08:08:20 PM 31.2706 -83.1308 153° Southeast 145 167 7,400  Level Jacksonville Center
Sun 08:09:20 PM 31.2350 -83.1161 161° South 145 167 7,400  Level Jacksonville Center
Sun 08:11:20 PM 31.1581 -83.0942 166° South 145 167 7,400  Level Jacksonville Center
Sun 08:13:20 PM 31.0850 -83.0672 162° South 145 167 7,400 33 Level Jacksonville Center
Sun 08:14:20 PM 31.0472 -83.0550 165° South 145 167 7,500 50 Climbing Jacksonville Center
Sun 08:15:20 PM 31.0139 -83.0356 153° Southeast 145 167 7,500 -50 Level Jacksonville Center
Sun 08:16:20 PM 30.9783 -83.0186 158° South 145 167 7,400  Descending Jacksonville Center
Sun 08:17:20 PM 30.9431 -82.9992 155° Southeast 145 167 7,500 100 Climbing Jacksonville Center
Sun 08:18:20 PM 30.9075 -82.9992 180° South 140 161 7,600 300 Climbing Jacksonville Center
Sun 08:19:20 PM 30.8761 -82.9869 162° South 134 154 8,100 300 Climbing Jacksonville Center
Sun 08:20:20 PM 30.8492 -82.9628 142° Southeast 129 148 8,200 -50 Climbing Jacksonville Center
Sun 08:21:20 PM 30.8094 -82.9556 171° South 129 148 8,000 -250 Descending Jacksonville Center
Sun 08:22:20 PM 30.7697 -82.9481 171° South 135 155 7,700 -300 Descending Jacksonville Center
Sun 08:23:20 PM 30.7300 -82.9386 168° South 149 171 7,400 -200 Descending Jacksonville Center
Sun 08:24:20 PM 30.6925 -82.9239 161° South 149 171 7,300 -50 Descending Jacksonville Center
Sun 08:25:20 PM 30.6569 -82.9069 158° South 143 165 7,300  Level Jacksonville Center
Sun 08:26:20 PM 30.6256 -82.8925 158° South 143 165 7,300  Level Jacksonville Center
Sun 08:27:20 PM 30.5839 -82.8925 180° South 143 165 7,300  Level Jacksonville Center
Sun 08:28:20 PM 30.5525 -82.8903 177° South 133 153 7,300 50 Level Jacksonville Center
Sun 08:29:20 PM 30.5169 -82.8925 183° South 128 147 7,400 50 Climbing Jacksonville Center
Sun 08:30:20 PM 30.4836 -82.8950 184° South 128 147 7,400  Level Jacksonville Center
Sun 08:31:20 PM 30.4481 -82.8975 183° South 122 140 7,400 -50 Level Jacksonville Center
Sun 08:32:20 PM 30.4189 -82.8950 176° South 122 140 7,300  Descending Jacksonville Center
Sun 08:33:20 PM 30.3792 -82.8853 168° South 122 140 7,400 50 Climbing Jacksonville Center
Sun 08:34:20 PM 30.3458 -82.8806 173° South 122 140 7,400 50 Level Jacksonville Center
Sun 08:35:20 PM 30.3125 -82.8733 169° South 122 140 7,500 50 Climbing Jacksonville Center
Sun 08:36:20 PM 30.2769 -82.8708 177° South 122 140 7,500 -100 Level Jacksonville Center
Sun 08:37:20 PM 30.2414 -82.8758 187° South 122 140 7,300 -50 Descending Jacksonville Center
Sun 08:38:20 PM 30.2058 -82.8831 190° South 122 140 7,400  Climbing Jacksonville Center
Sun 08:38:47 PM 30.1892 -82.8878 194° South 130 150 7,300  Descending Jacksonville Center
Sun 08:39:20 PM 30.1725 -82.8733 143° Southeast 122 140 7,400  Climbing Jacksonville Center
Sun 08:39:54 PM 30.1475 -82.8733 180° South 130 150 7,300  Descending Jacksonville Center
Sun 08:40:20 PM 30.1369 -82.8661 149° Southeast 122 140 7,400  Climbing Jacksonville Center
Sun 08:40:54 PM 30.1119 -82.8686 185° South 129 148 7,300  Descending Jacksonville Center
Sun 08:41:20 PM 30.1017 -82.8589 141° Southeast 122 140 7,400 98 Climbing Jacksonville Center
Sun 08:41:55 PM 30.0806 -82.8567 175° South 126 145 7,400 -100 Level Jacksonville Center
Sun 08:42:20 PM 30.0661 -82.8469 150° Southeast 122 140 7,300 -393 Descending Jacksonville Center
Sun 08:42:56 PM 30.0389 -82.8469 180° South 140 161 7,000 -400 Descending Jacksonville Center
Sun 08:43:20 PM 30.0286 -82.8444 168° South 122 140 6,900 -444 Descending Jacksonville Center
Sun 08:43:50 PM 30.0075 -82.8517 197° South 140 161 6,600 -500 Descending Jacksonville Center
Sun 08:44:20 PM 29.9889 -82.8567 193° South 127 146 6,400 -393 Descending Jacksonville Center
Sun 08:44:51 PM 29.9658 -82.8686 204° Southwest 145 167 6,200 -500 Descending Jacksonville Center
Sun 08:45:20 PM 29.9514 -82.8733 196° South 139 160 5,900 -492 Descending Jacksonville Center
Sun 08:45:52 PM 29.9261 -82.8853 202° Southwest 149 171 5,700 -600 Descending Jacksonville Center
Sun 08:46:20 PM 29.9136 -82.8903 199° South 151 174 5,300 -590 Descending Jacksonville Center
Sun 08:46:53 PM 29.8950 -82.8878 173° South 168 193 5,100 -400 Descending Jacksonville Center
Sun 08:47:20 PM 29.8739 -82.8733 149° Southeast 141 162 4,900 -700 Descending Jacksonville Center
Sun 08:47:53 PM 29.8531 -82.8903 215° Southwest 155 178 4,400 -600 Descending Jacksonville Center
Sun 08:48:20 PM 29.8406 -82.9022 220° Southwest 141 162 4,300 -295 Descending Jacksonville Center
Sun 08:48:54 PM 29.8178 -82.9094 195° South 138 159 4,100 -300 Descending Jacksonville Center
Sun 08:49:20 PM 29.8008 -82.9094 180° South 141 162 4,000 -218 Descending Jacksonville Center
Sun 08:49:49 PM 29.7822 -82.9044 167° South 140 161 3,900 -700 Descending Jacksonville Center
Sun 08:50:20 PM 29.7675 -82.8878 135° Southeast 141 162 3,300 -716 Descending Jacksonville Center
Sun 08:50:56 PM 29.7444 -82.8783 160° South 142 163 3,100 -400 Descending Jacksonville Center
Sun 08:51:50 PM 29.7175 -82.8542 142° Southeast 130 150 2,700 -393 Descending Jacksonville Center
Sun 08:52:58 PM 29.6903 -82.8208 133° Southeast 130 150 2,300 -188 Descending Jacksonville Center
Sun 08:53:58 PM 29.6672 -82.7969 138° Southeast 110 127 2,300  Level Jacksonville Center
Sun 08:54:59 PM 29.6464 -82.7756 138° Southeast 105 121 2,300  Level Jacksonville Center
Sun 08:55:53 PM 29.6256 -82.7542 138° Southeast 105 121 2,300  Level Jacksonville Center
Sun 08:57:00 PM 29.5983 -82.7278 140° Southeast 107 123 2,300 47 Level Jacksonville Center
Sun 08:58:01 PM 29.5775 -82.7064 138° Southeast 106 122 2,400  Climbing Jacksonville Center
Sun 08:59:08 PM 29.5564 -82.6800 133° Southeast 105 121 2,300  Descending Jacksonville Center
Sun 09:00:08 PM 29.5356 -82.6492 128° Southeast 108 124 2,400  Climbing Jacksonville Center
Sun 09:01:09 PM 29.5125 -82.6300 144° Southeast 110 127 2,300  Descending Jacksonville Center
Sun 09:02:10 PM 29.4894 -82.6086 141° Southeast 110 127 2,400 98 Climbing Jacksonville Center
Sun 09:04:00 PM 29.4418 -82.5601 138° Southeast  Level FlightAware Approximate
Sun 09:11:00 PM 29.3557 -82.4719 156° South  Level Estimated
Sun 09:12:00 PM 29.3557 -82.4719 156° South  Level Estimated
Sun 09:13:00 PM 29.3557 -82.4719 156° South  Level Estimated

Login

Don't have an account? Register now (free) for customized features, flight alerts, and more!